sensor_id;sensor_type;location;lat;lon;timestamp;P1;durP1;ratioP1;P2;durP2;ratioP2
826;SDS011;395;48.132;11.608;2022-11-11T00:00:45;4.97;;;3.33;;
826;SDS011;395;48.132;11.608;2022-11-11T00:03:10;5.30;;;3.63;;
826;SDS011;395;48.132;11.608;2022-11-11T00:05:36;3.50;;;3.23;;
826;SDS011;395;48.132;11.608;2022-11-11T00:08:02;3.07;;;2.77;;
826;SDS011;395;48.132;11.608;2022-11-11T00:10:28;3.30;;;2.90;;
826;SDS011;395;48.132;11.608;2022-11-11T00:13:00;4.93;;;3.10;;
826;SDS011;395;48.132;11.608;2022-11-11T00:15:27;3.50;;;2.70;;
826;SDS011;395;48.132;11.608;2022-11-11T00:17:53;4.33;;;2.93;;
826;SDS011;395;48.132;11.608;2022-11-11T00:20:37;3.30;;;3.00;;
826;SDS011;395;48.132;11.608;2022-11-11T00:23:23;3.20;;;2.67;;
826;SDS011;395;48.132;11.608;2022-11-11T00:26:08;3.00;;;2.73;;
826;SDS011;395;48.132;11.608;2022-11-11T00:28:36;5.00;;;2.40;;
826;SDS011;395;48.132;11.608;2022-11-11T00:31:05;3.57;;;3.27;;
826;SDS011;395;48.132;11.608;2022-11-11T00:33:32;3.07;;;2.70;;
826;SDS011;395;48.132;11.608;2022-11-11T00:35:59;2.67;;;2.47;;
826;SDS011;395;48.132;11.608;2022-11-11T00:38:25;2.80;;;2.60;;
826;SDS011;395;48.132;11.608;2022-11-11T00:41:13;2.77;;;2.40;;
826;SDS011;395;48.132;11.608;2022-11-11T00:43:41;4.17;;;2.90;;
826;SDS011;395;48.132;11.608;2022-11-11T00:46:08;2.77;;;2.30;;
826;SDS011;395;48.132;11.608;2022-11-11T00:48:52;2.90;;;2.70;;
826;SDS011;395;48.132;11.608;2022-11-11T00:51:37;3.25;;;2.95;;
826;SDS011;395;48.132;11.608;2022-11-11T00:54:04;3.30;;;3.00;;
826;SDS011;395;48.132;11.608;2022-11-11T00:56:30;3.90;;;2.87;;
826;SDS011;395;48.132;11.608;2022-11-11T00:58:55;4.13;;;2.80;;
826;SDS011;395;48.132;11.608;2022-11-11T01:01:21;4.83;;;2.80;;
826;SDS011;395;48.132;11.608;2022-11-11T01:03:47;3.10;;;2.80;;
826;SDS011;395;48.132;11.608;2022-11-11T01:06:13;3.37;;;2.80;;
826;SDS011;395;48.132;11.608;2022-11-11T01:08:39;2.83;;;2.63;;
826;SDS011;395;48.132;11.608;2022-11-11T01:11:15;4.93;;;2.90;;
826;SDS011;395;48.132;11.608;2022-11-11T01:13:42;2.73;;;2.53;;
826;SDS011;395;48.132;11.608;2022-11-11T01:16:13;3.10;;;2.50;;
826;SDS011;395;48.132;11.608;2022-11-11T01:18:47;2.90;;;2.60;;
826;SDS011;395;48.132;11.608;2022-11-11T01:21:15;2.60;;;2.40;;
826;SDS011;395;48.132;11.608;2022-11-11T01:23:44;3.47;;;2.60;;
826;SDS011;395;48.132;11.608;2022-11-11T01:28:44;2.60;;;2.40;;
826;SDS011;395;48.132;11.608;2022-11-11T01:31:14;3.23;;;2.93;;
826;SDS011;395;48.132;11.608;2022-11-11T01:33:40;6.63;;;2.90;;
826;SDS011;395;48.132;11.608;2022-11-11T01:36:11;2.93;;;2.70;;
826;SDS011;395;48.132;11.608;2022-11-11T01:38:38;7.83;;;3.53;;
826;SDS011;395;48.132;11.608;2022-11-11T01:41:06;4.67;;;3.97;;
826;SDS011;395;48.132;11.608;2022-11-11T01:43:53;7.50;;;3.73;;
826;SDS011;395;48.132;11.608;2022-11-11T01:46:35;3.73;;;3.20;;
826;SDS011;395;48.132;11.608;2022-11-11T01:49:20;3.90;;;3.53;;
826;SDS011;395;48.132;11.608;2022-11-11T01:54:40;3.20;;;2.90;;
826;SDS011;395;48.132;11.608;2022-11-11T01:59:54;2.73;;;2.03;;
826;SDS011;395;48.132;11.608;2022-11-11T02:05:21;4.07;;;2.33;;
826;SDS011;395;48.132;11.608;2022-11-11T02:08:28;2.33;;;2.13;;
826;SDS011;395;48.132;11.608;2022-11-11T02:11:13;2.77;;;2.30;;
826;SDS011;395;48.132;11.608;2022-11-11T02:14:05;3.50;;;1.97;;
826;SDS011;395;48.132;11.608;2022-11-11T02:16:49;2.67;;;2.23;;
826;SDS011;395;48.132;11.608;2022-11-11T02:19:17;3.70;;;2.20;;
826;SDS011;395;48.132;11.608;2022-11-11T02:21:52;3.17;;;2.20;;
826;SDS011;395;48.132;11.608;2022-11-11T02:24:23;3.40;;;2.10;;
826;SDS011;395;48.132;11.608;2022-11-11T02:26:50;2.17;;;1.93;;
826;SDS011;395;48.132;11.608;2022-11-11T02:29:23;3.53;;;2.10;;
826;SDS011;395;48.132;11.608;2022-11-11T02:31:50;2.27;;;2.07;;
826;SDS011;395;48.132;11.608;2022-11-11T02:34:15;2.57;;;2.20;;
826;SDS011;395;48.132;11.608;2022-11-11T02:36:41;2.40;;;2.20;;
826;SDS011;395;48.132;11.608;2022-11-11T02:39:08;3.17;;;2.40;;
826;SDS011;395;48.132;11.608;2022-11-11T02:41:33;3.57;;;2.40;;
826;SDS011;395;48.132;11.608;2022-11-11T02:44:18;2.90;;;2.20;;
826;SDS011;395;48.132;11.608;2022-11-11T02:46:44;2.57;;;2.20;;
826;SDS011;395;48.132;11.608;2022-11-11T02:49:10;2.93;;;2.43;;
826;SDS011;395;48.132;11.608;2022-11-11T02:51:36;2.63;;;2.17;;
826;SDS011;395;48.132;11.608;2022-11-11T02:54:01;2.40;;;2.20;;
826;SDS011;395;48.132;11.608;2022-11-11T02:56:27;2.57;;;2.37;;
826;SDS011;395;48.132;11.608;2022-11-11T02:59:13;2.45;;;2.25;;
826;SDS011;395;48.132;11.608;2022-11-11T03:01:39;2.80;;;2.50;;
826;SDS011;395;48.132;11.608;2022-11-11T03:04:05;2.93;;;2.73;;
826;SDS011;395;48.132;11.608;2022-11-11T03:06:30;2.87;;;2.50;;
826;SDS011;395;48.132;11.608;2022-11-11T03:08:56;4.20;;;2.43;;
826;SDS011;395;48.132;11.608;2022-11-11T03:11:22;3.00;;;2.40;;
826;SDS011;395;48.132;11.608;2022-11-11T03:13:53;3.47;;;2.60;;
826;SDS011;395;48.132;11.608;2022-11-11T03:16:23;3.85;;;3.03;;
826;SDS011;395;48.132;11.608;2022-11-11T03:19:08;4.00;;;2.80;;
826;SDS011;395;48.132;11.608;2022-11-11T03:21:34;3.13;;;2.60;;
826;SDS011;395;48.132;11.608;2022-11-11T03:23:59;4.10;;;3.30;;
826;SDS011;395;48.132;11.608;2022-11-11T03:26:25;3.90;;;3.17;;
826;SDS011;395;48.132;11.608;2022-11-11T03:28:51;4.57;;;2.87;;
826;SDS011;395;48.132;11.608;2022-11-11T03:31:16;3.30;;;3.00;;
826;SDS011;395;48.132;11.608;2022-11-11T03:33:42;5.60;;;3.27;;
826;SDS011;395;48.132;11.608;2022-11-11T03:36:08;3.37;;;2.93;;
826;SDS011;395;48.132;11.608;2022-11-11T03:38:33;4.27;;;3.40;;
826;SDS011;395;48.132;11.608;2022-11-11T03:40:59;3.73;;;3.20;;
826;SDS011;395;48.132;11.608;2022-11-11T03:43:28;3.50;;;3.20;;
826;SDS011;395;48.132;11.608;2022-11-11T03:45:56;2.67;;;2.47;;
826;SDS011;395;48.132;11.608;2022-11-11T03:48:23;3.30;;;3.00;;
826;SDS011;395;48.132;11.608;2022-11-11T03:50:50;3.73;;;3.00;;
826;SDS011;395;48.132;11.608;2022-11-11T03:53:16;3.20;;;2.90;;
826;SDS011;395;48.132;11.608;2022-11-11T03:55:46;3.57;;;2.70;;
826;SDS011;395;48.132;11.608;2022-11-11T03:58:13;2.90;;;2.60;;
826;SDS011;395;48.132;11.608;2022-11-11T04:00:39;3.60;;;2.73;;
826;SDS011;395;48.132;11.608;2022-11-11T04:05:50;4.97;;;3.27;;
826;SDS011;395;48.132;11.608;2022-11-11T04:08:35;2.60;;;2.40;;
826;SDS011;395;48.132;11.608;2022-11-11T04:12:01;3.00;;;2.70;;
826;SDS011;395;48.132;11.608;2022-11-11T04:14:10;4.35;;;2.58;;
826;SDS011;395;48.132;11.608;2022-11-11T04:16:56;3.00;;;2.53;;
826;SDS011;395;48.132;11.608;2022-11-11T04:19:22;3.03;;;2.58;;
826;SDS011;395;48.132;11.608;2022-11-11T04:22:06;3.20;;;2.77;;
826;SDS011;395;48.132;11.608;2022-11-11T04:24:32;3.00;;;2.60;;
826;SDS011;395;48.132;11.608;2022-11-11T04:27:17;3.03;;;2.73;;
826;SDS011;395;48.132;11.608;2022-11-11T04:29:44;4.38;;;2.60;;
826;SDS011;395;48.132;11.608;2022-11-11T04:32:14;2.67;;;2.40;;
826;SDS011;395;48.132;11.608;2022-11-11T04:35:00;3.00;;;2.63;;
826;SDS011;395;48.132;11.608;2022-11-11T04:37:32;2.55;;;2.25;;
826;SDS011;395;48.132;11.608;2022-11-11T04:40:00;3.03;;;2.23;;
826;SDS011;395;48.132;11.608;2022-11-11T04:42:44;2.42;;;2.33;;
826;SDS011;395;48.132;11.608;2022-11-11T04:45:11;2.60;;;2.10;;
826;SDS011;395;48.132;11.608;2022-11-11T04:50:20;2.10;;;2.00;;
826;SDS011;395;48.132;11.608;2022-11-11T04:52:47;3.07;;;2.10;;
826;SDS011;395;48.132;11.608;2022-11-11T04:55:13;2.10;;;1.90;;
826;SDS011;395;48.132;11.608;2022-11-11T04:57:58;3.70;;;2.55;;
826;SDS011;395;48.132;11.608;2022-11-11T05:00:23;2.33;;;2.13;;
826;SDS011;395;48.132;11.608;2022-11-11T05:02:52;2.40;;;2.20;;
826;SDS011;395;48.132;11.608;2022-11-11T05:05:37;2.75;;;2.33;;
826;SDS011;395;48.132;11.608;2022-11-11T05:08:21;2.67;;;2.20;;
826;SDS011;395;48.132;11.608;2022-11-11T05:11:05;2.40;;;2.20;;
826;SDS011;395;48.132;11.608;2022-11-11T05:13:31;1.77;;;1.67;;
826;SDS011;395;48.132;11.608;2022-11-11T05:16:16;2.30;;;2.10;;
826;SDS011;395;48.132;11.608;2022-11-11T05:19:04;4.55;;;2.50;;
826;SDS011;395;48.132;11.608;2022-11-11T05:21:49;2.63;;;2.43;;
826;SDS011;395;48.132;11.608;2022-11-11T05:24:17;4.23;;;2.90;;
826;SDS011;395;48.132;11.608;2022-11-11T05:27:01;3.53;;;1.90;;
826;SDS011;395;48.132;11.608;2022-11-11T05:29:27;2.30;;;2.10;;
826;SDS011;395;48.132;11.608;2022-11-11T05:31:52;3.00;;;2.00;;
826;SDS011;395;48.132;11.608;2022-11-11T05:34:18;1.97;;;1.77;;
826;SDS011;395;48.132;11.608;2022-11-11T05:36:44;1.90;;;1.60;;
826;SDS011;395;48.132;11.608;2022-11-11T05:39:09;1.77;;;1.67;;
826;SDS011;395;48.132;11.608;2022-11-11T05:41:35;1.47;;;1.37;;
826;SDS011;395;48.132;11.608;2022-11-11T05:44:00;1.70;;;1.60;;
826;SDS011;395;48.132;11.608;2022-11-11T05:46:26;3.23;;;1.73;;
826;SDS011;395;48.132;11.608;2022-11-11T05:48:52;1.67;;;1.57;;
826;SDS011;395;48.132;11.608;2022-11-11T05:51:36;2.28;;;1.80;;
826;SDS011;395;48.132;11.608;2022-11-11T05:54:02;3.30;;;2.33;;
826;SDS011;395;48.132;11.608;2022-11-11T05:56:27;3.43;;;2.00;;
826;SDS011;395;48.132;11.608;2022-11-11T05:58:53;3.40;;;2.13;;
826;SDS011;395;48.132;11.608;2022-11-11T06:01:19;1.50;;;1.40;;
826;SDS011;395;48.132;11.608;2022-11-11T06:03:44;3.00;;;2.30;;
826;SDS011;395;48.132;11.608;2022-11-11T06:06:10;2.00;;;1.80;;
826;SDS011;395;48.132;11.608;2022-11-11T06:08:36;3.20;;;2.10;;
826;SDS011;395;48.132;11.608;2022-11-11T06:11:02;2.53;;;2.27;;
826;SDS011;395;48.132;11.608;2022-11-11T06:13:27;2.67;;;2.43;;
826;SDS011;395;48.132;11.608;2022-11-11T06:15:54;2.80;;;2.40;;
826;SDS011;395;48.132;11.608;2022-11-11T06:18:21;2.80;;;2.10;;
826;SDS011;395;48.132;11.608;2022-11-11T06:20:55;4.10;;;2.20;;
826;SDS011;395;48.132;11.608;2022-11-11T06:23:21;4.03;;;2.13;;
826;SDS011;395;48.132;11.608;2022-11-11T06:25:48;3.97;;;2.72;;
826;SDS011;395;48.132;11.608;2022-11-11T06:28:33;3.60;;;2.40;;
826;SDS011;395;48.132;11.608;2022-11-11T06:30:59;3.08;;;2.47;;
826;SDS011;395;48.132;11.608;2022-11-11T06:33:24;3.70;;;2.43;;
826;SDS011;395;48.132;11.608;2022-11-11T06:35:50;3.17;;;2.43;;
826;SDS011;395;48.132;11.608;2022-11-11T06:38:16;2.53;;;2.30;;
826;SDS011;395;48.132;11.608;2022-11-11T06:40:42;3.23;;;1.90;;
826;SDS011;395;48.132;11.608;2022-11-11T06:43:08;3.60;;;2.43;;
826;SDS011;395;48.132;11.608;2022-11-11T06:45:34;5.07;;;2.50;;
826;SDS011;395;48.132;11.608;2022-11-11T06:48:01;5.35;;;2.50;;
826;SDS011;395;48.132;11.608;2022-11-11T06:50:27;2.47;;;2.13;;
826;SDS011;395;48.132;11.608;2022-11-11T06:52:53;2.67;;;2.47;;
826;SDS011;395;48.132;11.608;2022-11-11T06:55:19;5.72;;;2.50;;
826;SDS011;395;48.132;11.608;2022-11-11T06:57:45;4.07;;;2.60;;
826;SDS011;395;48.132;11.608;2022-11-11T07:00:11;3.60;;;2.90;;
826;SDS011;395;48.132;11.608;2022-11-11T07:02:37;3.13;;;2.67;;
826;SDS011;395;48.132;11.608;2022-11-11T07:05:03;8.87;;;3.20;;
826;SDS011;395;48.132;11.608;2022-11-11T07:07:29;7.40;;;3.40;;
826;SDS011;395;48.132;11.608;2022-11-11T07:09:55;9.63;;;2.93;;
826;SDS011;395;48.132;11.608;2022-11-11T07:12:22;6.50;;;3.20;;
826;SDS011;395;48.132;11.608;2022-11-11T07:14:48;6.65;;;3.25;;
826;SDS011;395;48.132;11.608;2022-11-11T07:17:14;10.23;;;3.37;;
826;SDS011;395;48.132;11.608;2022-11-11T07:19:40;4.87;;;3.00;;
826;SDS011;395;48.132;11.608;2022-11-11T07:22:05;7.43;;;3.60;;
826;SDS011;395;48.132;11.608;2022-11-11T07:24:31;8.40;;;3.90;;
826;SDS011;395;48.132;11.608;2022-11-11T07:26:57;12.23;;;4.00;;
826;SDS011;395;48.132;11.608;2022-11-11T07:29:23;9.07;;;4.00;;
826;SDS011;395;48.132;11.608;2022-11-11T07:31:49;8.57;;;3.95;;
826;SDS011;395;48.132;11.608;2022-11-11T07:34:15;8.47;;;4.00;;
826;SDS011;395;48.132;11.608;2022-11-11T07:36:41;7.33;;;4.50;;
826;SDS011;395;48.132;11.608;2022-11-11T07:39:06;7.90;;;3.70;;
826;SDS011;395;48.132;11.608;2022-11-11T07:41:32;7.10;;;3.67;;
826;SDS011;395;48.132;11.608;2022-11-11T07:43:58;10.43;;;3.87;;
826;SDS011;395;48.132;11.608;2022-11-11T07:46:24;6.80;;;3.30;;
826;SDS011;395;48.132;11.608;2022-11-11T07:48:50;7.70;;;3.23;;
826;SDS011;395;48.132;11.608;2022-11-11T07:51:16;5.67;;;3.70;;
826;SDS011;395;48.132;11.608;2022-11-11T07:53:41;7.40;;;3.60;;
826;SDS011;395;48.132;11.608;2022-11-11T07:56:07;6.53;;;3.50;;
826;SDS011;395;48.132;11.608;2022-11-11T07:58:32;6.10;;;3.40;;
826;SDS011;395;48.132;11.608;2022-11-11T08:00:58;5.60;;;3.30;;
826;SDS011;395;48.132;11.608;2022-11-11T08:03:24;5.00;;;3.40;;
826;SDS011;395;48.132;11.608;2022-11-11T08:05:50;7.53;;;4.23;;
826;SDS011;395;48.132;11.608;2022-11-11T08:08:16;6.17;;;3.63;;
826;SDS011;395;48.132;11.608;2022-11-11T08:10:42;4.37;;;3.60;;
826;SDS011;395;48.132;11.608;2022-11-11T08:13:09;8.87;;;4.70;;
826;SDS011;395;48.132;11.608;2022-11-11T08:15:54;7.40;;;3.93;;
826;SDS011;395;48.132;11.608;2022-11-11T08:18:20;6.03;;;4.07;;
826;SDS011;395;48.132;11.608;2022-11-11T08:20:46;4.80;;;3.60;;
826;SDS011;395;48.132;11.608;2022-11-11T08:23:11;4.07;;;3.77;;
826;SDS011;395;48.132;11.608;2022-11-11T08:25:38;3.67;;;3.30;;
826;SDS011;395;48.132;11.608;2022-11-11T08:28:05;5.43;;;3.43;;
826;SDS011;395;48.132;11.608;2022-11-11T08:30:31;5.17;;;3.60;;
826;SDS011;395;48.132;11.608;2022-11-11T08:35:23;7.03;;;3.87;;
826;SDS011;395;48.132;11.608;2022-11-11T08:37:49;3.73;;;3.27;;
826;SDS011;395;48.132;11.608;2022-11-11T08:40:15;4.60;;;3.57;;
826;SDS011;395;48.132;11.608;2022-11-11T08:42:41;4.00;;;3.53;;
826;SDS011;395;48.132;11.608;2022-11-11T08:45:07;3.80;;;3.40;;
826;SDS011;395;48.132;11.608;2022-11-11T08:47:36;4.13;;;3.67;;
826;SDS011;395;48.132;11.608;2022-11-11T08:50:03;4.23;;;3.80;;
826;SDS011;395;48.132;11.608;2022-11-11T08:52:29;4.43;;;3.50;;
826;SDS011;395;48.132;11.608;2022-11-11T08:54:55;4.73;;;3.90;;
826;SDS011;395;48.132;11.608;2022-11-11T08:57:21;5.70;;;3.50;;
826;SDS011;395;48.132;11.608;2022-11-11T08:59:46;4.70;;;4.30;;
826;SDS011;395;48.132;11.608;2022-11-11T09:02:12;6.13;;;5.00;;
826;SDS011;395;48.132;11.608;2022-11-11T09:04:39;14.40;;;4.30;;
826;SDS011;395;48.132;11.608;2022-11-11T09:07:06;7.20;;;4.53;;
826;SDS011;395;48.132;11.608;2022-11-11T09:09:33;6.50;;;5.30;;
826;SDS011;395;48.132;11.608;2022-11-11T09:11:59;4.47;;;3.60;;
826;SDS011;395;48.132;11.608;2022-11-11T09:14:25;3.90;;;3.20;;
826;SDS011;395;48.132;11.608;2022-11-11T09:16:50;3.17;;;2.50;;
826;SDS011;395;48.132;11.608;2022-11-11T09:19:16;4.47;;;2.63;;
826;SDS011;395;48.132;11.608;2022-11-11T09:21:42;3.13;;;2.57;;
826;SDS011;395;48.132;11.608;2022-11-11T09:24:08;3.63;;;2.87;;
826;SDS011;395;48.132;11.608;2022-11-11T09:26:33;7.33;;;3.73;;
826;SDS011;395;48.132;11.608;2022-11-11T09:28:59;4.20;;;3.23;;
826;SDS011;395;48.132;11.608;2022-11-11T09:31:28;5.53;;;3.20;;
826;SDS011;395;48.132;11.608;2022-11-11T09:33:54;2.40;;;2.20;;
826;SDS011;395;48.132;11.608;2022-11-11T09:36:19;4.57;;;3.00;;
826;SDS011;395;48.132;11.608;2022-11-11T09:38:45;3.63;;;2.77;;
826;SDS011;395;48.132;11.608;2022-11-11T09:41:12;3.00;;;1.90;;
826;SDS011;395;48.132;11.608;2022-11-11T09:43:55;3.40;;;2.50;;
826;SDS011;395;48.132;11.608;2022-11-11T09:54:29;4.37;;;1.87;;
826;SDS011;395;48.132;11.608;2022-11-11T09:57:21;2.63;;;2.40;;
826;SDS011;395;48.132;11.608;2022-11-11T09:59:57;3.17;;;2.47;;
826;SDS011;395;48.132;11.608;2022-11-11T10:04:59;2.37;;;2.17;;
826;SDS011;395;48.132;11.608;2022-11-11T10:07:44;4.20;;;2.10;;
826;SDS011;395;48.132;11.608;2022-11-11T10:10:21;4.20;;;2.40;;
826;SDS011;395;48.132;11.608;2022-11-11T10:13:13;3.30;;;1.87;;
826;SDS011;395;48.132;11.608;2022-11-11T10:15:42;2.50;;;1.87;;
826;SDS011;395;48.132;11.608;2022-11-11T10:18:25;2.67;;;2.27;;
826;SDS011;395;48.132;11.608;2022-11-11T10:21:00;4.47;;;2.37;;
826;SDS011;395;48.132;11.608;2022-11-11T10:23:35;2.40;;;1.90;;
826;SDS011;395;48.132;11.608;2022-11-11T10:26:17;2.67;;;2.23;;
826;SDS011;395;48.132;11.608;2022-11-11T10:28:45;5.70;;;2.93;;
826;SDS011;395;48.132;11.608;2022-11-11T10:31:15;4.40;;;2.37;;
826;SDS011;395;48.132;11.608;2022-11-11T10:36:22;3.83;;;2.80;;
826;SDS011;395;48.132;11.608;2022-11-11T10:38:57;3.17;;;2.60;;
826;SDS011;395;48.132;11.608;2022-11-11T10:41:39;4.30;;;2.90;;
826;SDS011;395;48.132;11.608;2022-11-11T10:44:18;3.17;;;2.40;;
826;SDS011;395;48.132;11.608;2022-11-11T10:47:08;2.60;;;2.30;;
826;SDS011;395;48.132;11.608;2022-11-11T10:50:04;3.40;;;2.43;;
826;SDS011;395;48.132;11.608;2022-11-11T10:52:40;2.23;;;1.97;;
826;SDS011;395;48.132;11.608;2022-11-11T10:55:09;2.30;;;2.03;;
826;SDS011;395;48.132;11.608;2022-11-11T11:00:17;2.83;;;2.03;;
826;SDS011;395;48.132;11.608;2022-11-11T11:05:30;3.73;;;2.23;;
826;SDS011;395;48.132;11.608;2022-11-11T11:08:02;3.30;;;2.20;;
826;SDS011;395;48.132;11.608;2022-11-11T11:11:16;3.83;;;2.40;;
826;SDS011;395;48.132;11.608;2022-11-11T11:16:16;2.73;;;2.20;;
826;SDS011;395;48.132;11.608;2022-11-11T11:19:13;2.90;;;2.60;;
826;SDS011;395;48.132;11.608;2022-11-11T11:21:47;3.07;;;2.80;;
826;SDS011;395;48.132;11.608;2022-11-11T11:24:24;3.53;;;2.77;;
826;SDS011;395;48.132;11.608;2022-11-11T11:26:55;3.50;;;3.20;;
826;SDS011;395;48.132;11.608;2022-11-11T11:29:26;4.77;;;3.00;;
826;SDS011;395;48.132;11.608;2022-11-11T11:32:16;4.90;;;3.20;;
826;SDS011;395;48.132;11.608;2022-11-11T11:34:51;4.53;;;3.30;;
826;SDS011;395;48.132;11.608;2022-11-11T11:37:20;4.00;;;2.77;;
826;SDS011;395;48.132;11.608;2022-11-11T11:39:47;4.83;;;3.10;;
826;SDS011;395;48.132;11.608;2022-11-11T11:42:26;4.03;;;2.73;;
826;SDS011;395;48.132;11.608;2022-11-11T11:44:53;3.07;;;2.80;;
826;SDS011;395;48.132;11.608;2022-11-11T11:55:23;4.80;;;3.93;;
826;SDS011;395;48.132;11.608;2022-11-11T12:00:26;4.73;;;4.07;;
826;SDS011;395;48.132;11.608;2022-11-11T12:14:36;6.00;;;4.53;;
826;SDS011;395;48.132;11.608;2022-11-11T12:20:19;4.90;;;4.40;;
826;SDS011;395;48.132;11.608;2022-11-11T12:31:59;5.60;;;4.10;;
826;SDS011;395;48.132;11.608;2022-11-11T12:34:17;5.53;;;4.90;;
826;SDS011;395;48.132;11.608;2022-11-11T12:36:58;4.90;;;4.37;;
826;SDS011;395;48.132;11.608;2022-11-11T12:39:46;5.00;;;4.50;;
826;SDS011;395;48.132;11.608;2022-11-11T12:45:46;4.67;;;4.27;;
826;SDS011;395;48.132;11.608;2022-11-11T12:50:45;5.10;;;4.60;;
826;SDS011;395;48.132;11.608;2022-11-11T12:55:58;6.30;;;5.37;;
826;SDS011;395;48.132;11.608;2022-11-11T13:01:48;4.83;;;4.43;;
826;SDS011;395;48.132;11.608;2022-11-11T13:15:42;6.13;;;4.77;;
826;SDS011;395;48.132;11.608;2022-11-11T13:18:11;5.97;;;4.00;;
826;SDS011;395;48.132;11.608;2022-11-11T13:23:22;6.30;;;4.60;;
826;SDS011;395;48.132;11.608;2022-11-11T13:25:49;5.13;;;4.73;;
826;SDS011;395;48.132;11.608;2022-11-11T13:28:28;7.23;;;4.90;;
826;SDS011;395;48.132;11.608;2022-11-11T13:33:47;4.63;;;4.20;;
826;SDS011;395;48.132;11.608;2022-11-11T13:36:20;6.93;;;4.30;;
826;SDS011;395;48.132;11.608;2022-11-11T13:38:59;5.80;;;4.40;;
826;SDS011;395;48.132;11.608;2022-11-11T13:41:27;6.10;;;5.00;;
826;SDS011;395;48.132;11.608;2022-11-11T13:44:03;5.53;;;4.67;;
826;SDS011;395;48.132;11.608;2022-11-11T13:46:34;5.10;;;4.47;;
826;SDS011;395;48.132;11.608;2022-11-11T13:49:31;5.13;;;4.10;;
826;SDS011;395;48.132;11.608;2022-11-11T13:52:18;5.07;;;4.57;;
826;SDS011;395;48.132;11.608;2022-11-11T13:54:55;3.83;;;3.53;;
826;SDS011;395;48.132;11.608;2022-11-11T13:57:25;3.87;;;3.57;;
826;SDS011;395;48.132;11.608;2022-11-11T14:00:00;3.50;;;3.20;;
826;SDS011;395;48.132;11.608;2022-11-11T14:02:30;4.40;;;3.07;;
826;SDS011;395;48.132;11.608;2022-11-11T14:13:10;3.73;;;3.20;;
826;SDS011;395;48.132;11.608;2022-11-11T14:28:52;3.10;;;2.90;;
826;SDS011;395;48.132;11.608;2022-11-11T14:33:57;4.10;;;3.30;;
826;SDS011;395;48.132;11.608;2022-11-11T14:36:48;4.20;;;3.70;;
826;SDS011;395;48.132;11.608;2022-11-11T14:41:48;5.47;;;3.77;;
826;SDS011;395;48.132;11.608;2022-11-11T14:55:01;4.70;;;4.27;;
826;SDS011;395;48.132;11.608;2022-11-11T15:00:04;4.50;;;4.10;;
826;SDS011;395;48.132;11.608;2022-11-11T15:02:40;7.10;;;4.93;;
826;SDS011;395;48.132;11.608;2022-11-11T15:05:17;4.00;;;3.70;;
826;SDS011;395;48.132;11.608;2022-11-11T15:08:06;5.00;;;4.17;;
826;SDS011;395;48.132;11.608;2022-11-11T15:10:41;6.93;;;4.53;;
826;SDS011;395;48.132;11.608;2022-11-11T15:19:08;5.80;;;4.73;;
826;SDS011;395;48.132;11.608;2022-11-11T15:21:36;5.87;;;5.37;;
826;SDS011;395;48.132;11.608;2022-11-11T15:32:28;6.30;;;5.73;;
826;SDS011;395;48.132;11.608;2022-11-11T15:37:55;7.73;;;7.03;;
826;SDS011;395;48.132;11.608;2022-11-11T15:40:24;7.67;;;6.93;;
826;SDS011;395;48.132;11.608;2022-11-11T15:42:54;7.40;;;6.70;;
826;SDS011;395;48.132;11.608;2022-11-11T15:45:23;10.40;;;6.23;;
826;SDS011;395;48.132;11.608;2022-11-11T15:47:55;6.63;;;6.03;;
826;SDS011;395;48.132;11.608;2022-11-11T15:53:08;6.73;;;6.10;;
826;SDS011;395;48.132;11.608;2022-11-11T15:55:36;8.50;;;7.70;;
826;SDS011;395;48.132;11.608;2022-11-11T15:58:46;8.20;;;7.30;;
826;SDS011;395;48.132;11.608;2022-11-11T16:00:56;8.90;;;6.47;;
826;SDS011;395;48.132;11.608;2022-11-11T16:03:33;7.90;;;7.20;;
826;SDS011;395;48.132;11.608;2022-11-11T16:06:13;10.30;;;9.20;;
826;SDS011;395;48.132;11.608;2022-11-11T16:08:40;9.23;;;8.37;;
826;SDS011;395;48.132;11.608;2022-11-11T16:11:09;9.80;;;8.80;;
826;SDS011;395;48.132;11.608;2022-11-11T16:13:43;8.10;;;7.40;;
826;SDS011;395;48.132;11.608;2022-11-11T16:16:15;8.60;;;7.70;;
826;SDS011;395;48.132;11.608;2022-11-11T16:19:01;10.13;;;9.13;;
826;SDS011;395;48.132;11.608;2022-11-11T16:21:42;8.90;;;8.10;;
826;SDS011;395;48.132;11.608;2022-11-11T16:24:31;12.30;;;9.03;;
826;SDS011;395;48.132;11.608;2022-11-11T16:26:56;10.33;;;9.20;;
826;SDS011;395;48.132;11.608;2022-11-11T16:29:26;11.40;;;10.30;;
826;SDS011;395;48.132;11.608;2022-11-11T16:32:00;10.37;;;9.10;;
826;SDS011;395;48.132;11.608;2022-11-11T16:37:00;8.40;;;7.60;;
826;SDS011;395;48.132;11.608;2022-11-11T16:39:27;13.57;;;9.40;;
826;SDS011;395;48.132;11.608;2022-11-11T16:41:54;12.90;;;8.70;;
826;SDS011;395;48.132;11.608;2022-11-11T16:44:28;14.20;;;8.20;;
826;SDS011;395;48.132;11.608;2022-11-11T16:46:56;10.83;;;9.27;;
826;SDS011;395;48.132;11.608;2022-11-11T16:49:37;10.27;;;9.33;;
826;SDS011;395;48.132;11.608;2022-11-11T16:52:06;9.57;;;8.33;;
826;SDS011;395;48.132;11.608;2022-11-11T16:54:37;10.73;;;8.70;;
826;SDS011;395;48.132;11.608;2022-11-11T16:57:14;10.97;;;8.93;;
826;SDS011;395;48.132;11.608;2022-11-11T16:59:46;12.93;;;9.50;;
826;SDS011;395;48.132;11.608;2022-11-11T17:02:17;11.70;;;9.77;;
826;SDS011;395;48.132;11.608;2022-11-11T17:04:54;9.80;;;8.80;;
826;SDS011;395;48.132;11.608;2022-11-11T17:07:34;10.07;;;9.17;;
826;SDS011;395;48.132;11.608;2022-11-11T17:10:15;11.10;;;9.50;;
826;SDS011;395;48.132;11.608;2022-11-11T17:12:43;10.70;;;9.60;;
826;SDS011;395;48.132;11.608;2022-11-11T17:15:10;29.27;;;17.50;;
826;SDS011;395;48.132;11.608;2022-11-11T17:17:44;22.57;;;14.00;;
826;SDS011;395;48.132;11.608;2022-11-11T17:20:12;14.97;;;11.00;;
826;SDS011;395;48.132;11.608;2022-11-11T17:22:48;12.17;;;11.07;;
826;SDS011;395;48.132;11.608;2022-11-11T17:25:18;16.50;;;12.30;;
826;SDS011;395;48.132;11.608;2022-11-11T17:27:44;16.03;;;11.50;;
826;SDS011;395;48.132;11.608;2022-11-11T17:30:11;13.57;;;12.07;;
826;SDS011;395;48.132;11.608;2022-11-11T17:32:37;12.23;;;11.03;;
826;SDS011;395;48.132;11.608;2022-11-11T17:35:03;13.90;;;11.53;;
826;SDS011;395;48.132;11.608;2022-11-11T17:37:33;11.23;;;10.00;;
826;SDS011;395;48.132;11.608;2022-11-11T17:39:59;10.00;;;9.10;;
826;SDS011;395;48.132;11.608;2022-11-11T17:42:26;13.23;;;10.73;;
826;SDS011;395;48.132;11.608;2022-11-11T17:44:53;11.53;;;10.33;;
826;SDS011;395;48.132;11.608;2022-11-11T17:47:19;10.43;;;9.40;;
826;SDS011;395;48.132;11.608;2022-11-11T17:49:45;12.30;;;11.00;;
826;SDS011;395;48.132;11.608;2022-11-11T17:52:10;13.10;;;11.03;;
826;SDS011;395;48.132;11.608;2022-11-11T17:54:36;12.60;;;11.37;;
826;SDS011;395;48.132;11.608;2022-11-11T17:57:01;13.00;;;11.07;;
826;SDS011;395;48.132;11.608;2022-11-11T17:59:27;11.40;;;10.27;;
826;SDS011;395;48.132;11.608;2022-11-11T18:01:54;13.30;;;10.50;;
826;SDS011;395;48.132;11.608;2022-11-11T18:04:20;11.53;;;10.33;;
826;SDS011;395;48.132;11.608;2022-11-11T18:06:49;11.77;;;10.67;;
826;SDS011;395;48.132;11.608;2022-11-11T18:09:14;12.40;;;10.27;;
826;SDS011;395;48.132;11.608;2022-11-11T18:11:40;11.07;;;9.97;;
826;SDS011;395;48.132;11.608;2022-11-11T18:14:06;14.63;;;11.57;;
826;SDS011;395;48.132;11.608;2022-11-11T18:16:32;12.37;;;11.07;;
826;SDS011;395;48.132;11.608;2022-11-11T18:18:57;12.17;;;10.30;;
826;SDS011;395;48.132;11.608;2022-11-11T18:21:25;12.67;;;10.07;;
826;SDS011;395;48.132;11.608;2022-11-11T18:23:52;13.33;;;10.20;;
826;SDS011;395;48.132;11.608;2022-11-11T18:26:18;26.60;;;15.47;;
826;SDS011;395;48.132;11.608;2022-11-11T18:28:45;16.40;;;11.77;;
826;SDS011;395;48.132;11.608;2022-11-11T18:31:11;10.57;;;9.43;;
826;SDS011;395;48.132;11.608;2022-11-11T18:33:38;11.43;;;9.13;;
826;SDS011;395;48.132;11.608;2022-11-11T18:36:13;9.03;;;8.13;;